sensor_id;sensor_type;location;lat;lon;timestamp;temperature;humidity
48589;DHT22;34369;51.174;6.738;2024-02-04T00:00:21;9.80;74.20
48589;DHT22;34369;51.174;6.738;2024-02-04T00:02:53;9.80;74.20
48589;DHT22;34369;51.174;6.738;2024-02-04T00:05:26;9.80;74.30
48589;DHT22;34369;51.174;6.738;2024-02-04T00:08:04;9.70;74.30
48589;DHT22;34369;51.174;6.738;2024-02-04T00:10:36;9.70;74.50
48589;DHT22;34369;51.174;6.738;2024-02-04T00:13:09;9.70;74.40
48589;DHT22;34369;51.174;6.738;2024-02-04T00:15:42;9.70;74.40
48589;DHT22;34369;51.174;6.738;2024-02-04T00:18:15;9.70;74.40
48589;DHT22;34369;51.174;6.738;2024-02-04T00:20:47;9.80;74.40
48589;DHT22;34369;51.174;6.738;2024-02-04T00:23:22;9.70;74.50
48589;DHT22;34369;51.174;6.738;2024-02-04T00:25:55;9.80;74.50
48589;DHT22;34369;51.174;6.738;2024-02-04T00:28:27;9.80;74.40
48589;DHT22;34369;51.174;6.738;2024-02-04T00:31:00;9.70;74.40
48589;DHT22;34369;51.174;6.738;2024-02-04T00:33:33;9.80;74.50
48589;DHT22;34369;51.174;6.738;2024-02-04T00:36:06;9.80;74.50
48589;DHT22;34369;51.174;6.738;2024-02-04T00:38:40;9.70;74.60
48589;DHT22;34369;51.174;6.738;2024-02-04T00:41:13;9.80;74.60
48589;DHT22;34369;51.174;6.738;2024-02-04T00:43:45;9.70;74.60
48589;DHT22;34369;51.174;6.738;2024-02-04T00:46:17;9.70;74.60
48589;DHT22;34369;51.174;6.738;2024-02-04T00:48:50;9.70;74.60
48589;DHT22;34369;51.174;6.738;2024-02-04T00:51:24;9.70;74.60
48589;DHT22;34369;51.174;6.738;2024-02-04T00:53:57;9.70;74.70
48589;DHT22;34369;51.174;6.738;2024-02-04T00:56:29;9.70;74.70
48589;DHT22;34369;51.174;6.738;2024-02-04T00:59:02;9.70;74.70
48589;DHT22;34369;51.174;6.738;2024-02-04T01:01:34;9.70;74.80
48589;DHT22;34369;51.174;6.738;2024-02-04T01:04:06;9.70;74.90
48589;DHT22;34369;51.174;6.738;2024-02-04T01:06:39;9.70;74.90
48589;DHT22;34369;51.174;6.738;2024-02-04T01:09:12;9.70;74.90
48589;DHT22;34369;51.174;6.738;2024-02-04T01:11:44;9.70;74.90
48589;DHT22;34369;51.174;6.738;2024-02-04T01:14:16;9.70;75.00
48589;DHT22;34369;51.174;6.738;2024-02-04T01:16:49;9.70;75.00
48589;DHT22;34369;51.174;6.738;2024-02-04T01:19:21;9.70;75.00
48589;DHT22;34369;51.174;6.738;2024-02-04T01:21:53;9.70;75.00
48589;DHT22;34369;51.174;6.738;2024-02-04T01:24:27;9.70;75.10
48589;DHT22;34369;51.174;6.738;2024-02-04T01:27:02;9.70;75.20
48589;DHT22;34369;51.174;6.738;2024-02-04T01:29:34;9.70;75.10
48589;DHT22;34369;51.174;6.738;2024-02-04T01:32:07;9.70;75.10
48589;DHT22;34369;51.174;6.738;2024-02-04T01:34:39;9.70;75.20
48589;DHT22;34369;51.174;6.738;2024-02-04T01:37:12;9.70;75.30
48589;DHT22;34369;51.174;6.738;2024-02-04T01:39:45;9.70;75.30
48589;DHT22;34369;51.174;6.738;2024-02-04T01:42:18;9.70;75.30
48589;DHT22;34369;51.174;6.738;2024-02-04T01:44:51;9.70;75.40
48589;DHT22;34369;51.174;6.738;2024-02-04T01:47:23;9.70;75.50
48589;DHT22;34369;51.174;6.738;2024-02-04T01:49:56;9.70;75.40
48589;DHT22;34369;51.174;6.738;2024-02-04T01:52:29;9.70;75.40
48589;DHT22;34369;51.174;6.738;2024-02-04T01:55:05;9.70;75.40
48589;DHT22;34369;51.174;6.738;2024-02-04T01:57:39;9.70;75.50
48589;DHT22;34369;51.174;6.738;2024-02-04T02:00:13;9.70;75.50
48589;DHT22;34369;51.174;6.738;2024-02-04T02:02:47;9.70;75.50
48589;DHT22;34369;51.174;6.738;2024-02-04T02:05:20;9.70;75.50
48589;DHT22;34369;51.174;6.738;2024-02-04T02:07:54;9.70;75.50
48589;DHT22;34369;51.174;6.738;2024-02-04T02:10:28;9.70;75.50
48589;DHT22;34369;51.174;6.738;2024-02-04T02:13:06;9.70;75.60
48589;DHT22;34369;51.174;6.738;2024-02-04T02:15:47;9.70;75.70
48589;DHT22;34369;51.174;6.738;2024-02-04T02:18:25;9.70;75.70
48589;DHT22;34369;51.174;6.738;2024-02-04T02:21:13;9.70;75.80
48589;DHT22;34369;51.174;6.738;2024-02-04T02:24:08;9.70;75.90
48589;DHT22;34369;51.174;6.738;2024-02-04T02:26:45;9.70;76.00
48589;DHT22;34369;51.174;6.738;2024-02-04T02:29:17;9.70;75.80
48589;DHT22;34369;51.174;6.738;2024-02-04T02:31:49;9.70;75.70
48589;DHT22;34369;51.174;6.738;2024-02-04T02:34:21;9.70;75.80
48589;DHT22;34369;51.174;6.738;2024-02-04T02:37:08;9.70;75.80
48589;DHT22;34369;51.174;6.738;2024-02-04T02:39:49;9.80;76.10
48589;DHT22;34369;51.174;6.738;2024-02-04T02:42:31;9.70;75.80
48589;DHT22;34369;51.174;6.738;2024-02-04T02:45:06;9.70;75.80
48589;DHT22;34369;51.174;6.738;2024-02-04T02:47:41;9.80;75.80
48589;DHT22;34369;51.174;6.738;2024-02-04T02:50:15;9.70;75.80
48589;DHT22;34369;51.174;6.738;2024-02-04T02:52:47;9.80;75.80
48589;DHT22;34369;51.174;6.738;2024-02-04T02:55:22;9.80;75.90
48589;DHT22;34369;51.174;6.738;2024-02-04T02:57:55;9.80;75.90
48589;DHT22;34369;51.174;6.738;2024-02-04T03:00:28;9.80;75.90
48589;DHT22;34369;51.174;6.738;2024-02-04T03:03:00;9.80;75.90
48589;DHT22;34369;51.174;6.738;2024-02-04T03:05:32;9.80;75.90
48589;DHT22;34369;51.174;6.738;2024-02-04T03:08:06;9.80;75.90
48589;DHT22;34369;51.174;6.738;2024-02-04T03:10:39;9.80;75.90
48589;DHT22;34369;51.174;6.738;2024-02-04T03:13:12;9.80;75.90
48589;DHT22;34369;51.174;6.738;2024-02-04T03:15:44;9.80;75.90
48589;DHT22;34369;51.174;6.738;2024-02-04T03:18:17;9.80;75.90
48589;DHT22;34369;51.174;6.738;2024-02-04T03:20:51;9.80;75.90
48589;DHT22;34369;51.174;6.738;2024-02-04T03:23:23;9.90;75.90
48589;DHT22;34369;51.174;6.738;2024-02-04T03:25:57;9.90;75.90
48589;DHT22;34369;51.174;6.738;2024-02-04T03:28:30;9.90;75.90
48589;DHT22;34369;51.174;6.738;2024-02-04T03:31:03;9.90;75.90
48589;DHT22;34369;51.174;6.738;2024-02-04T03:33:36;9.90;75.90
48589;DHT22;34369;51.174;6.738;2024-02-04T03:36:08;9.90;75.90
48589;DHT22;34369;51.174;6.738;2024-02-04T03:38:40;9.90;75.90
48589;DHT22;34369;51.174;6.738;2024-02-04T03:41:13;9.90;75.90
48589;DHT22;34369;51.174;6.738;2024-02-04T03:43:49;9.90;75.90
48589;DHT22;34369;51.174;6.738;2024-02-04T03:46:23;9.90;75.90
48589;DHT22;34369;51.174;6.738;2024-02-04T03:48:55;9.90;75.90
48589;DHT22;34369;51.174;6.738;2024-02-04T03:51:27;10.00;75.90
48589;DHT22;34369;51.174;6.738;2024-02-04T03:53:59;9.90;75.90
48589;DHT22;34369;51.174;6.738;2024-02-04T03:56:31;10.00;75.90
48589;DHT22;34369;51.174;6.738;2024-02-04T03:59:05;9.90;75.80
48589;DHT22;34369;51.174;6.738;2024-02-04T04:01:47;9.90;75.80
48589;DHT22;34369;51.174;6.738;2024-02-04T04:04:20;9.90;75.90
48589;DHT22;34369;51.174;6.738;2024-02-04T04:06:52;9.90;75.70
48589;DHT22;34369;51.174;6.738;2024-02-04T04:09:24;10.00;75.80
48589;DHT22;34369;51.174;6.738;2024-02-04T04:11:56;10.00;75.70
48589;DHT22;34369;51.174;6.738;2024-02-04T04:14:30;10.00;75.70
48589;DHT22;34369;51.174;6.738;2024-02-04T04:17:02;10.00;75.70
48589;DHT22;34369;51.174;6.738;2024-02-04T04:19:34;10.00;75.70
48589;DHT22;34369;51.174;6.738;2024-02-04T04:22:07;10.00;75.70
48589;DHT22;34369;51.174;6.738;2024-02-04T04:24:40;10.00;75.60
48589;DHT22;34369;51.174;6.738;2024-02-04T04:27:13;10.00;75.60
48589;DHT22;34369;51.174;6.738;2024-02-04T04:29:47;10.00;75.50
48589;DHT22;34369;51.174;6.738;2024-02-04T04:32:20;10.00;75.50
48589;DHT22;34369;51.174;6.738;2024-02-04T04:34:52;10.00;75.40
48589;DHT22;34369;51.174;6.738;2024-02-04T04:37:26;10.00;75.40
48589;DHT22;34369;51.174;6.738;2024-02-04T04:39:58;10.00;75.40
48589;DHT22;34369;51.174;6.738;2024-02-04T04:42:30;10.00;75.40
48589;DHT22;34369;51.174;6.738;2024-02-04T04:45:04;10.00;75.40
48589;DHT22;34369;51.174;6.738;2024-02-04T04:47:38;10.00;75.40
48589;DHT22;34369;51.174;6.738;2024-02-04T04:50:10;10.00;75.30
48589;DHT22;34369;51.174;6.738;2024-02-04T04:52:42;10.00;75.20
48589;DHT22;34369;51.174;6.738;2024-02-04T04:55:14;10.00;75.20
48589;DHT22;34369;51.174;6.738;2024-02-04T04:57:46;10.00;75.10
48589;DHT22;34369;51.174;6.738;2024-02-04T05:02:46;10.00;75.00
48589;DHT22;34369;51.174;6.738;2024-02-04T05:05:18;10.00;75.00
48589;DHT22;34369;51.174;6.738;2024-02-04T05:07:51;10.00;74.90
48589;DHT22;34369;51.174;6.738;2024-02-04T05:10:23;10.00;74.90
48589;DHT22;34369;51.174;6.738;2024-02-04T05:12:55;10.00;74.80
48589;DHT22;34369;51.174;6.738;2024-02-04T05:15:27;10.00;74.80
48589;DHT22;34369;51.174;6.738;2024-02-04T05:18:02;10.00;74.70
48589;DHT22;34369;51.174;6.738;2024-02-04T05:20:34;10.00;74.70
48589;DHT22;34369;51.174;6.738;2024-02-04T05:23:07;10.00;74.70
48589;DHT22;34369;51.174;6.738;2024-02-04T05:25:39;10.00;74.60
48589;DHT22;34369;51.174;6.738;2024-02-04T05:28:11;10.00;74.60
48589;DHT22;34369;51.174;6.738;2024-02-04T05:30:43;10.00;74.50
48589;DHT22;34369;51.174;6.738;2024-02-04T05:33:17;10.00;74.50
48589;DHT22;34369;51.174;6.738;2024-02-04T05:35:49;10.00;74.40
48589;DHT22;34369;51.174;6.738;2024-02-04T05:38:22;10.00;74.40
48589;DHT22;34369;51.174;6.738;2024-02-04T05:40:54;10.00;74.40
48589;DHT22;34369;51.174;6.738;2024-02-04T05:43:26;10.00;74.40
48589;DHT22;34369;51.174;6.738;2024-02-04T05:45:59;10.00;74.40
48589;DHT22;34369;51.174;6.738;2024-02-04T05:48:32;10.00;74.50
48589;DHT22;34369;51.174;6.738;2024-02-04T05:51:05;10.00;74.50
48589;DHT22;34369;51.174;6.738;2024-02-04T05:53:37;10.00;74.40
48589;DHT22;34369;51.174;6.738;2024-02-04T05:56:09;10.00;74.40
48589;DHT22;34369;51.174;6.738;2024-02-04T05:58:42;10.00;74.40
48589;DHT22;34369;51.174;6.738;2024-02-04T06:01:15;10.00;74.40
48589;DHT22;34369;51.174;6.738;2024-02-04T06:03:49;10.00;74.40
48589;DHT22;34369;51.174;6.738;2024-02-04T06:06:22;10.00;74.40
48589;DHT22;34369;51.174;6.738;2024-02-04T06:08:54;10.00;74.40
48589;DHT22;34369;51.174;6.738;2024-02-04T06:11:30;10.00;74.40
48589;DHT22;34369;51.174;6.738;2024-02-04T06:14:02;10.00;74.40
48589;DHT22;34369;51.174;6.738;2024-02-04T06:16:34;10.00;74.40
48589;DHT22;34369;51.174;6.738;2024-02-04T06:19:09;10.00;74.40
48589;DHT22;34369;51.174;6.738;2024-02-04T06:21:43;10.00;74.50
48589;DHT22;34369;51.174;6.738;2024-02-04T06:24:15;10.00;74.50
48589;DHT22;34369;51.174;6.738;2024-02-04T06:26:50;10.00;74.50
48589;DHT22;34369;51.174;6.738;2024-02-04T06:29:22;10.00;74.50
48589;DHT22;34369;51.174;6.738;2024-02-04T06:31:54;10.00;74.50
48589;DHT22;34369;51.174;6.738;2024-02-04T06:34:27;10.00;74.50
48589;DHT22;34369;51.174;6.738;2024-02-04T06:37:00;10.00;74.50
48589;DHT22;34369;51.174;6.738;2024-02-04T06:39:33;10.00;74.50
48589;DHT22;34369;51.174;6.738;2024-02-04T06:42:05;10.00;74.50
48589;DHT22;34369;51.174;6.738;2024-02-04T06:44:37;10.00;74.60
48589;DHT22;34369;51.174;6.738;2024-02-04T06:47:10;10.00;74.50
48589;DHT22;34369;51.174;6.738;2024-02-04T06:49:45;10.00;74.50
48589;DHT22;34369;51.174;6.738;2024-02-04T06:52:18;10.00;74.50
48589;DHT22;34369;51.174;6.738;2024-02-04T06:54:50;10.10;74.50
48589;DHT22;34369;51.174;6.738;2024-02-04T06:57:24;10.00;74.50
48589;DHT22;34369;51.174;6.738;2024-02-04T06:59:57;10.00;74.60
48589;DHT22;34369;51.174;6.738;2024-02-04T07:02:30;10.10;74.50
48589;DHT22;34369;51.174;6.738;2024-02-04T07:05:04;10.10;74.60
48589;DHT22;34369;51.174;6.738;2024-02-04T07:07:37;10.10;74.60
48589;DHT22;34369;51.174;6.738;2024-02-04T07:10:10;10.10;74.60
48589;DHT22;34369;51.174;6.738;2024-02-04T07:12:42;10.10;74.60
48589;DHT22;34369;51.174;6.738;2024-02-04T07:15:14;10.10;74.60
48589;DHT22;34369;51.174;6.738;2024-02-04T07:17:47;10.00;74.70
48589;DHT22;34369;51.174;6.738;2024-02-04T07:20:22;10.10;74.70
48589;DHT22;34369;51.174;6.738;2024-02-04T07:22:55;10.10;74.70
48589;DHT22;34369;51.174;6.738;2024-02-04T07:25:27;10.00;74.80
48589;DHT22;34369;51.174;6.738;2024-02-04T07:27:59;10.00;74.80
48589;DHT22;34369;51.174;6.738;2024-02-04T07:30:33;10.00;74.90
48589;DHT22;34369;51.174;6.738;2024-02-04T07:33:10;10.00;74.90
48589;DHT22;34369;51.174;6.738;2024-02-04T07:42:28;10.00;75.40
48589;DHT22;34369;51.174;6.738;2024-02-04T07:45:18;10.00;75.10
48589;DHT22;34369;51.174;6.738;2024-02-04T07:48:19;10.00;75.10
48589;DHT22;34369;51.174;6.738;2024-02-04T07:51:36;10.00;75.20
48589;DHT22;34369;51.174;6.738;2024-02-04T07:58:22;10.00;75.30
48589;DHT22;34369;51.174;6.738;2024-02-04T08:01:53;10.00;75.30
48589;DHT22;34369;51.174;6.738;2024-02-04T08:04:53;10.00;75.40
48589;DHT22;34369;51.174;6.738;2024-02-04T08:07:55;10.10;75.20
48589;DHT22;34369;51.174;6.738;2024-02-04T08:10:46;10.00;75.10
48589;DHT22;34369;51.174;6.738;2024-02-04T08:13:35;10.00;75.10
48589;DHT22;34369;51.174;6.738;2024-02-04T08:16:29;10.00;75.30
48589;DHT22;34369;51.174;6.738;2024-02-04T08:19:09;10.00;75.30
48589;DHT22;34369;51.174;6.738;2024-02-04T08:21:58;10.10;75.20
48589;DHT22;34369;51.174;6.738;2024-02-04T08:25:32;10.00;75.30
48589;DHT22;34369;51.174;6.738;2024-02-04T08:28:25;10.00;75.50
48589;DHT22;34369;51.174;6.738;2024-02-04T08:31:04;10.10;75.20
48589;DHT22;34369;51.174;6.738;2024-02-04T08:33:48;10.00;75.30
48589;DHT22;34369;51.174;6.738;2024-02-04T08:36:34;10.00;75.30
48589;DHT22;34369;51.174;6.738;2024-02-04T08:39:14;10.10;75.30
48589;DHT22;34369;51.174;6.738;2024-02-04T08:42:02;10.00;75.30
48589;DHT22;34369;51.174;6.738;2024-02-04T08:44:54;10.00;75.50
48589;DHT22;34369;51.174;6.738;2024-02-04T08:47:37;10.10;75.40
48589;DHT22;34369;51.174;6.738;2024-02-04T08:50:15;10.10;75.40
48589;DHT22;34369;51.174;6.738;2024-02-04T08:53:07;10.00;75.60
48589;DHT22;34369;51.174;6.738;2024-02-04T08:55:56;10.10;75.60
48589;DHT22;34369;51.174;6.738;2024-02-04T08:58:35;10.20;75.50
48589;DHT22;34369;51.174;6.738;2024-02-04T09:01:11;10.20;75.50
48589;DHT22;34369;51.174;6.738;2024-02-04T09:03:47;10.20;75.40
48589;DHT22;34369;51.174;6.738;2024-02-04T09:06:21;10.20;75.40
48589;DHT22;34369;51.174;6.738;2024-02-04T09:08:57;10.30;75.30
48589;DHT22;34369;51.174;6.738;2024-02-04T09:11:36;10.30;75.20
48589;DHT22;34369;51.174;6.738;2024-02-04T09:14:28;10.30;75.10
48589;DHT22;34369;51.174;6.738;2024-02-04T09:17:05;10.30;75.20
48589;DHT22;34369;51.174;6.738;2024-02-04T09:19:43;10.30;75.10
48589;DHT22;34369;51.174;6.738;2024-02-04T09:22:27;10.30;75.10
48589;DHT22;34369;51.174;6.738;2024-02-04T09:25:00;10.30;75.10
48589;DHT22;34369;51.174;6.738;2024-02-04T09:27:38;10.30;75.00
48589;DHT22;34369;51.174;6.738;2024-02-04T09:30:14;10.30;75.10
48589;DHT22;34369;51.174;6.738;2024-02-04T09:32:59;10.30;75.20
48589;DHT22;34369;51.174;6.738;2024-02-04T09:35:49;10.30;75.20
48589;DHT22;34369;51.174;6.738;2024-02-04T09:38:32;10.30;75.20
48589;DHT22;34369;51.174;6.738;2024-02-04T09:41:13;10.30;75.20
48589;DHT22;34369;51.174;6.738;2024-02-04T09:43:52;10.30;75.30
48589;DHT22;34369;51.174;6.738;2024-02-04T09:46:27;10.40;75.30
48589;DHT22;34369;51.174;6.738;2024-02-04T09:49:01;10.40;75.40
48589;DHT22;34369;51.174;6.738;2024-02-04T09:51:36;10.40;75.50
48589;DHT22;34369;51.174;6.738;2024-02-04T09:54:14;10.50;75.40
48589;DHT22;34369;51.174;6.738;2024-02-04T09:56:53;10.50;75.40
48589;DHT22;34369;51.174;6.738;2024-02-04T09:59:26;10.50;75.30
48589;DHT22;34369;51.174;6.738;2024-02-04T10:02:01;10.50;75.30
48589;DHT22;34369;51.174;6.738;2024-02-04T10:04:40;10.50;75.30
48589;DHT22;34369;51.174;6.738;2024-02-04T10:07:19;10.60;75.30
48589;DHT22;34369;51.174;6.738;2024-02-04T10:09:57;10.60;75.20
48589;DHT22;34369;51.174;6.738;2024-02-04T10:12:45;10.60;74.90
48589;DHT22;34369;51.174;6.738;2024-02-04T10:15:22;10.60;74.70
48589;DHT22;34369;51.174;6.738;2024-02-04T10:18:10;10.70;74.60
48589;DHT22;34369;51.174;6.738;2024-02-04T10:20:43;10.80;74.50
48589;DHT22;34369;51.174;6.738;2024-02-04T10:23:22;10.70;74.60
48589;DHT22;34369;51.174;6.738;2024-02-04T10:26:00;10.80;74.60
48589;DHT22;34369;51.174;6.738;2024-02-04T10:28:33;10.80;74.60
48589;DHT22;34369;51.174;6.738;2024-02-04T10:31:08;10.80;74.40
48589;DHT22;34369;51.174;6.738;2024-02-04T10:33:41;10.80;74.30
48589;DHT22;34369;51.174;6.738;2024-02-04T10:36:13;10.80;74.40
48589;DHT22;34369;51.174;6.738;2024-02-04T10:38:50;10.80;74.30
48589;DHT22;34369;51.174;6.738;2024-02-04T10:41:25;10.90;74.30
48589;DHT22;34369;51.174;6.738;2024-02-04T10:43:59;11.00;74.10
48589;DHT22;34369;51.174;6.738;2024-02-04T10:46:39;11.00;73.90
48589;DHT22;34369;51.174;6.738;2024-02-04T10:49:14;11.00;73.80
48589;DHT22;34369;51.174;6.738;2024-02-04T10:51:49;11.00;73.70
48589;DHT22;34369;51.174;6.738;2024-02-04T10:54:26;11.00;73.70
48589;DHT22;34369;51.174;6.738;2024-02-04T10:57:02;11.00;73.70
48589;DHT22;34369;51.174;6.738;2024-02-04T10:59:37;11.10;73.40
48589;DHT22;34369;51.174;6.738;2024-02-04T11:02:11;11.10;73.50
48589;DHT22;34369;51.174;6.738;2024-02-04T11:04:44;11.10;73.40
48589;DHT22;34369;51.174;6.738;2024-02-04T11:07:21;11.10;73.30
48589;DHT22;34369;51.174;6.738;2024-02-04T11:09:56;11.10;73.20
48589;DHT22;34369;51.174;6.738;2024-02-04T11:12:30;11.10;73.00
48589;DHT22;34369;51.174;6.738;2024-02-04T11:15:05;11.10;72.90
48589;DHT22;34369;51.174;6.738;2024-02-04T11:21:34;11.10;72.80
48589;DHT22;34369;51.174;6.738;2024-02-04T11:24:27;11.10;73.00
48589;DHT22;34369;51.174;6.738;2024-02-04T11:27:11;11.00;73.00
48589;DHT22;34369;51.174;6.738;2024-02-04T11:29:45;11.00;72.90
48589;DHT22;34369;51.174;6.738;2024-02-04T11:32:18;11.00;73.00
48589;DHT22;34369;51.174;6.738;2024-02-04T11:34:52;11.00;73.20
48589;DHT22;34369;51.174;6.738;2024-02-04T11:37:26;11.00;73.30
48589;DHT22;34369;51.174;6.738;2024-02-04T11:39:58;11.00;73.40
48589;DHT22;34369;51.174;6.738;2024-02-04T11:42:33;10.90;73.50
48589;DHT22;34369;51.174;6.738;2024-02-04T11:45:08;10.90;73.60
48589;DHT22;34369;51.174;6.738;2024-02-04T11:47:41;11.00;73.60
48589;DHT22;34369;51.174;6.738;2024-02-04T11:50:25;11.00;73.60
48589;DHT22;34369;51.174;6.738;2024-02-04T11:53:06;10.90;73.50
48589;DHT22;34369;51.174;6.738;2024-02-04T11:55:41;11.00;73.60
48589;DHT22;34369;51.174;6.738;2024-02-04T11:58:18;11.00;73.50
48589;DHT22;34369;51.174;6.738;2024-02-04T12:00:52;11.00;73.50
48589;DHT22;34369;51.174;6.738;2024-02-04T12:03:32;11.00;73.50
48589;DHT22;34369;51.174;6.738;2024-02-04T12:06:07;11.00;73.50
48589;DHT22;34369;51.174;6.738;2024-02-04T12:08:43;11.00;73.40
48589;DHT22;34369;51.174;6.738;2024-02-04T12:11:16;11.00;73.30
48589;DHT22;34369;51.174;6.738;2024-02-04T12:13:51;11.00;73.30
48589;DHT22;34369;51.174;6.738;2024-02-04T12:16:23;11.00;73.40
48589;DHT22;34369;51.174;6.738;2024-02-04T12:18:57;11.00;73.40
48589;DHT22;34369;51.174;6.738;2024-02-04T12:21:32;11.00;73.40
48589;DHT22;34369;51.174;6.738;2024-02-04T12:24:05;11.00;73.40
48589;DHT22;34369;51.174;6.738;2024-02-04T12:26:40;11.00;73.40
48589;DHT22;34369;51.174;6.738;2024-02-04T12:29:15;11.00;73.40
48589;DHT22;34369;51.174;6.738;2024-02-04T12:31:57;11.00;73.40
48589;DHT22;34369;51.174;6.738;2024-02-04T12:34:30;10.90;73.50
48589;DHT22;34369;51.174;6.738;2024-02-04T12:37:05;11.00;73.60
48589;DHT22;34369;51.174;6.738;2024-02-04T12:39:37;10.90;73.60
48589;DHT22;34369;51.174;6.738;2024-02-04T12:42:10;11.00;73.70
48589;DHT22;34369;51.174;6.738;2024-02-04T12:44:47;10.90;73.80
48589;DHT22;34369;51.174;6.738;2024-02-04T12:47:20;11.00;73.80
48589;DHT22;34369;51.174;6.738;2024-02-04T12:49:58;10.90;73.80
48589;DHT22;34369;51.174;6.738;2024-02-04T12:52:33;10.90;73.80
48589;DHT22;34369;51.174;6.738;2024-02-04T12:55:20;11.00;73.70
48589;DHT22;34369;51.174;6.738;2024-02-04T12:58:02;10.90;73.80
48589;DHT22;34369;51.174;6.738;2024-02-04T13:00:38;10.90;73.90
48589;DHT22;34369;51.174;6.738;2024-02-04T13:03:15;10.90;73.80
48589;DHT22;34369;51.174;6.738;2024-02-04T13:05:48;10.90;73.90
48589;DHT22;34369;51.174;6.738;2024-02-04T13:08:20;10.90;74.00
48589;DHT22;34369;51.174;6.738;2024-02-04T13:10:54;10.90;73.90
48589;DHT22;34369;51.174;6.738;2024-02-04T13:13:27;10.90;73.90
48589;DHT22;34369;51.174;6.738;2024-02-04T13:16:01;10.80;73.90
48589;DHT22;34369;51.174;6.738;2024-02-04T13:18:35;10.80;73.80
48589;DHT22;34369;51.174;6.738;2024-02-04T13:21:07;10.80;73.90
48589;DHT22;34369;51.174;6.738;2024-02-04T13:23:40;10.80;73.90
48589;DHT22;34369;51.174;6.738;2024-02-04T13:26:12;10.80;74.00
48589;DHT22;34369;51.174;6.738;2024-02-04T13:28:45;10.80;74.00
48589;DHT22;34369;51.174;6.738;2024-02-04T13:31:19;10.80;74.00
48589;DHT22;34369;51.174;6.738;2024-02-04T13:33:53;10.80;74.00
48589;DHT22;34369;51.174;6.738;2024-02-04T13:36:26;11.00;73.90
48589;DHT22;34369;51.174;6.738;2024-02-04T13:38:58;10.90;73.80
48589;DHT22;34369;51.174;6.738;2024-02-04T13:41:31;11.00;73.70
48589;DHT22;34369;51.174;6.738;2024-02-04T13:44:03;11.00;73.50
48589;DHT22;34369;51.174;6.738;2024-02-04T13:46:37;11.00;73.40
48589;DHT22;34369;51.174;6.738;2024-02-04T13:49:12;11.00;73.30
48589;DHT22;34369;51.174;6.738;2024-02-04T13:51:45;11.00;73.20
48589;DHT22;34369;51.174;6.738;2024-02-04T13:54:17;11.00;73.10
48589;DHT22;34369;51.174;6.738;2024-02-04T13:56:49;11.00;73.10
48589;DHT22;34369;51.174;6.738;2024-02-04T13:59:22;11.00;73.00
48589;DHT22;34369;51.174;6.738;2024-02-04T14:01:56;11.00;72.90
48589;DHT22;34369;51.174;6.738;2024-02-04T14:04:31;11.00;72.80
48589;DHT22;34369;51.174;6.738;2024-02-04T14:07:07;10.90;72.70
48589;DHT22;34369;51.174;6.738;2024-02-04T14:09:42;10.90;72.80
48589;DHT22;34369;51.174;6.738;2024-02-04T14:12:14;10.90;72.80
48589;DHT22;34369;51.174;6.738;2024-02-04T14:14:46;10.90;72.70
48589;DHT22;34369;51.174;6.738;2024-02-04T14:17:20;10.90;72.70
48589;DHT22;34369;51.174;6.738;2024-02-04T14:19:53;10.90;72.80
48589;DHT22;34369;51.174;6.738;2024-02-04T14:22:25;10.90;72.80
48589;DHT22;34369;51.174;6.738;2024-02-04T14:24:58;10.90;72.70
48589;DHT22;34369;51.174;6.738;2024-02-04T14:27:32;10.80;72.70
48589;DHT22;34369;51.174;6.738;2024-02-04T14:30:05;10.80;72.80
48589;DHT22;34369;51.174;6.738;2024-02-04T14:32:40;10.80;72.80
48589;DHT22;34369;51.174;6.738;2024-02-04T14:35:13;10.80;72.80
48589;DHT22;34369;51.174;6.738;2024-02-04T14:37:47;10.80;72.70
48589;DHT22;34369;51.174;6.738;2024-02-04T14:40:19;10.80;72.70
48589;DHT22;34369;51.174;6.738;2024-02-04T14:42:52;10.80;72.70
48589;DHT22;34369;51.174;6.738;2024-02-04T14:45:26;10.80;72.70
48589;DHT22;34369;51.174;6.738;2024-02-04T14:48:02;10.80;72.80
48589;DHT22;34369;51.174;6.738;2024-02-04T14:50:34;10.80;72.80
48589;DHT22;34369;51.174;6.738;2024-02-04T14:53:07;10.80;72.80
48589;DHT22;34369;51.174;6.738;2024-02-04T14:55:40;10.80;72.60
48589;DHT22;34369;51.174;6.738;2024-02-04T14:58:14;10.80;72.50
48589;DHT22;34369;51.174;6.738;2024-02-04T15:00:47;10.80;72.50
48589;DHT22;34369;51.174;6.738;2024-02-04T15:03:21;10.80;72.50
48589;DHT22;34369;51.174;6.738;2024-02-04T15:05:54;10.80;72.50
48589;DHT22;34369;51.174;6.738;2024-02-04T15:08:26;10.80;72.50
48589;DHT22;34369;51.174;6.738;2024-02-04T15:10:59;10.80;72.30
48589;DHT22;34369;51.174;6.738;2024-02-04T15:13:33;10.80;72.30
48589;DHT22;34369;51.174;6.738;2024-02-04T15:16:08;10.80;72.30
48589;DHT22;34369;51.174;6.738;2024-02-04T15:18:44;10.80;72.20
48589;DHT22;34369;51.174;6.738;2024-02-04T15:21:18;10.80;72.10
48589;DHT22;34369;51.174;6.738;2024-02-04T15:23:52;10.80;72.00
48589;DHT22;34369;51.174;6.738;2024-02-04T15:26:25;10.80;72.00
48589;DHT22;34369;51.174;6.738;2024-02-04T15:28:58;10.80;72.00
48589;DHT22;34369;51.174;6.738;2024-02-04T15:31:33;10.80;72.00
48589;DHT22;34369;51.174;6.738;2024-02-04T15:34:09;10.80;72.10
48589;DHT22;34369;51.174;6.738;2024-02-04T15:36:43;10.80;72.00
48589;DHT22;34369;51.174;6.738;2024-02-04T15:39:16;10.80;72.00
48589;DHT22;34369;51.174;6.738;2024-02-04T15:41:50;10.80;72.00
48589;DHT22;34369;51.174;6.738;2024-02-04T15:44:22;10.80;71.90
48589;DHT22;34369;51.174;6.738;2024-02-04T15:46:56;10.80;71.90
48589;DHT22;34369;51.174;6.738;2024-02-04T15:49:31;10.80;71.90
48589;DHT22;34369;51.174;6.738;2024-02-04T15:52:05;10.80;71.90
48589;DHT22;34369;51.174;6.738;2024-02-04T15:54:41;10.80;71.90
48589;DHT22;34369;51.174;6.738;2024-02-04T15:57:16;10.80;71.90
48589;DHT22;34369;51.174;6.738;2024-02-04T15:59:57;10.80;71.90
48589;DHT22;34369;51.174;6.738;2024-02-04T16:02:31;10.80;71.90
48589;DHT22;34369;51.174;6.738;2024-02-04T16:05:08;10.80;71.80
48589;DHT22;34369;51.174;6.738;2024-02-04T16:07:42;10.80;71.80
48589;DHT22;34369;51.174;6.738;2024-02-04T16:10:18;10.80;71.80
48589;DHT22;34369;51.174;6.738;2024-02-04T16:12:56;10.80;71.80
48589;DHT22;34369;51.174;6.738;2024-02-04T16:15:30;10.80;71.90
48589;DHT22;34369;51.174;6.738;2024-02-04T16:18:05;10.80;71.90
48589;DHT22;34369;51.174;6.738;2024-02-04T16:20:41;10.80;71.90
48589;DHT22;34369;51.174;6.738;2024-02-04T16:23:13;10.80;71.90
48589;DHT22;34369;51.174;6.738;2024-02-04T16:25:46;10.80;72.00
48589;DHT22;34369;51.174;6.738;2024-02-04T16:28:18;10.80;71.90
48589;DHT22;34369;51.174;6.738;2024-02-04T16:30:52;10.80;72.00
48589;DHT22;34369;51.174;6.738;2024-02-04T16:33:26;10.80;72.00
48589;DHT22;34369;51.174;6.738;2024-02-04T16:36:00;10.80;72.00
48589;DHT22;34369;51.174;6.738;2024-02-04T16:38:35;10.80;72.10
48589;DHT22;34369;51.174;6.738;2024-02-04T16:41:11;10.80;72.00
48589;DHT22;34369;51.174;6.738;2024-02-04T16:43:43;10.70;72.00